TAF Text Data
IDs:
Format:
Raw Decoded Include METAR

Data at: 1611 UTC 20 May 2022

KOAJ 201122Z 2012/2112 23007KT P6SM FEW250
  FM201700 23012G19KT P6SM FEW250
  FM210000 20007KT P6SM FEW250
  FM210400 20006KT P6SM FEW250 WS020/22035KT AMD LTD TO CLD VIS AND WIND